Time;durP1;ratioP1;P1;durP2;ratioP2;P2;SDS_P1;SDS_P2;PMS_P1;PMS_P2;Temp;Humidity;BMP_temperature;BMP_pressure;BME280_temperature;BME280_humidity;BME280_pressure;Samples;Min_cycle;Max_cycle;Signal;HPM_P1;HPM_P2
2024/01/31 00:00:34;;;;;;;11.57;7.10;;;5.50;99.90;;;4.80;100.00;103065.84;4168032;28;20459;-72
2024/01/31 00:02:37;;;;;;;10.88;6.45;;;5.50;99.90;;;4.76;100.00;103062.50;4169164;28;20546;-72
2024/01/31 00:04:37;;;;;;;8.30;6.72;;;5.50;99.90;;;4.72;100.00;103065.31;4167934;28;20041;-72
2024/01/31 00:06:38;;;;;;;9.13;6.43;;;5.50;99.90;;;4.69;100.00;103062.81;4167866;28;20021;-72
2024/01/31 00:08:39;;;;;;;9.15;6.80;;;5.50;99.90;;;4.65;100.00;103058.59;4168096;28;20029;-72
2024/01/31 00:10:40;;;;;;;9.32;6.72;;;5.40;99.90;;;4.66;100.00;103061.16;4169144;28;20026;-72
2024/01/31 00:12:41;;;;;;;12.65;7.05;;;5.40;99.90;;;4.64;100.00;103062.13;4168818;28;20029;-72
2024/01/31 00:14:45;;;;;;;10.35;7.85;;;5.40;99.90;;;4.57;100.00;103045.00;4167855;28;20026;-72
2024/01/31 00:16:46;;;;;;;10.82;7.22;;;5.40;99.90;;;4.59;100.00;103053.63;4167972;28;20048;-72
2024/01/31 00:18:46;;;;;;;11.85;7.63;;;5.30;99.90;;;4.59;100.00;103044.03;4169192;28;20026;-72
2024/01/31 00:20:47;;;;;;;9.73;6.72;;;5.30;99.90;;;4.59;100.00;103043.16;4168969;28;20034;-72
2024/01/31 00:22:48;;;;;;;9.77;6.53;;;5.30;99.90;;;4.56;100.00;103043.28;4168807;28;20026;-72
2024/01/31 00:24:49;;;;;;;11.23;6.43;;;5.40;99.90;;;4.55;100.00;103039.81;4167793;28;20083;-72
2024/01/31 00:26:50;;;;;;;8.52;6.50;;;5.30;99.90;;;4.51;100.00;103026.94;4168889;28;20047;-72
2024/01/31 00:28:51;;;;;;;9.68;7.20;;;5.30;99.90;;;4.48;100.00;103020.91;4168686;28;20029;-72
2024/01/31 00:30:51;;;;;;;8.27;6.90;;;5.30;99.90;;;4.56;100.00;103027.59;4168777;28;20021;-72
2024/01/31 00:32:52;;;;;;;10.35;6.53;;;5.30;99.90;;;4.54;100.00;103026.81;4167449;28;20089;-72
2024/01/31 00:34:53;;;;;;;9.82;6.25;;;5.30;99.90;;;4.46;100.00;103020.13;4168349;28;20095;-72
2024/01/31 00:36:54;;;;;;;8.20;5.40;;;5.30;99.90;;;4.42;100.00;103015.09;4168910;28;20034;-72
2024/01/31 00:38:55;;;;;;;6.28;5.20;;;5.20;99.90;;;4.35;100.00;103024.94;4168569;28;20026;-72
2024/01/31 00:40:56;;;;;;;7.65;5.28;;;5.20;99.90;;;4.27;100.00;103013.91;4169122;28;20084;-72
2024/01/31 00:42:57;;;;;;;8.73;5.57;;;5.10;99.90;;;4.26;100.00;103027.06;4167248;28;20025;-72
2024/01/31 00:44:58;;;;;;;9.95;5.65;;;5.10;99.90;;;4.21;100.00;103027.22;4168248;28;20159;-72
2024/01/31 00:46:58;;;;;;;10.05;5.68;;;5.00;99.90;;;4.22;100.00;103036.78;4167339;28;20041;-72
2024/01/31 00:49:01;;;;;;;7.05;5.60;;;5.00;99.90;;;4.27;100.00;103040.03;4167361;28;20030;-72
2024/01/31 00:51:07;;;;;;;9.73;6.45;;;5.00;99.90;;;4.32;100.00;103030.28;4168508;28;20026;-72
2024/01/31 00:53:08;;;;;;;9.15;6.13;;;5.10;99.90;;;4.41;100.00;103040.38;4167262;28;20112;-72
2024/01/31 00:55:09;;;;;;;9.45;6.65;;;5.20;99.90;;;4.52;100.00;103031.25;4167234;28;20021;-72
2024/01/31 00:57:10;;;;;;;11.80;7.40;;;5.30;99.90;;;4.62;100.00;103023.00;4168657;28;20064;-72
2024/01/31 00:59:10;;;;;;;12.82;7.95;;;5.30;99.90;;;4.72;100.00;103013.84;4168205;28;20025;-72
2024/01/31 01:01:12;;;;;;;12.75;8.70;;;5.40;99.90;;;4.80;100.00;103021.38;4167427;28;20033;-72
2024/01/31 01:03:13;;;;;;;9.35;7.30;;;5.50;99.90;;;4.93;100.00;103027.78;4168486;28;20543;-72
2024/01/31 01:05:14;;;;;;;9.48;5.45;;;5.60;99.90;;;4.95;100.00;103026.84;4167469;28;20021;-72
2024/01/31 01:07:15;;;;;;;6.72;5.22;;;5.70;99.90;;;4.94;100.00;103017.28;4167254;28;20025;-72
2024/01/31 01:09:15;;;;;;;10.13;6.72;;;5.70;99.90;;;4.92;100.00;103016.50;4168497;28;20026;-72
2024/01/31 01:11:17;;;;;;;7.90;6.07;;;5.70;99.90;;;4.96;100.00;103017.19;4166722;28;20021;-72
2024/01/31 01:13:18;;;;;;;10.13;6.80;;;5.70;99.90;;;4.97;100.00;103011.06;4168071;28;20030;-72
2024/01/31 01:15:19;;;;;;;8.15;5.82;;;5.70;99.90;;;5.02;100.00;103023.03;4167289;28;20085;-72
2024/01/31 01:17:20;;;;;;;7.65;5.38;;;5.80;99.90;;;5.01;100.00;103023.97;4168430;28;20025;-72
2024/01/31 01:19:21;;;;;;;7.22;5.38;;;5.80;99.90;;;4.98;100.00;103015.38;4168556;28;20093;-72
2024/01/31 01:21:21;;;;;;;12.18;6.53;;;5.80;99.90;;;5.00;100.00;103016.16;4167255;28;20053;-72
2024/01/31 01:23:22;;;;;;;9.40;7.55;;;5.80;99.90;;;4.98;100.00;103015.38;4168247;28;20040;-72
2024/01/31 01:25:23;;;;;;;12.25;7.70;;;5.80;99.90;;;4.98;100.00;103015.38;4168387;28;20028;-72
2024/01/31 01:27:24;;;;;;;8.75;6.10;;;5.80;99.90;;;5.01;100.00;103017.88;4150555;28;20014;-72
2024/01/31 01:29:25;;;;;;;9.40;5.85;;;5.80;99.90;;;5.00;100.00;103018.78;4168248;28;20030;-72
2024/01/31 01:31:26;;;;;;;8.50;5.22;;;5.80;99.90;;;4.98;100.00;103016.25;4166941;28;20021;-72
2024/01/31 01:33:26;;;;;;;6.95;5.10;;;5.80;99.90;;;4.99;100.00;103019.69;4167135;28;20028;-72
2024/01/31 01:35:28;;;;;;;9.77;6.40;;;5.80;99.90;;;5.00;100.00;103010.94;4166807;28;20034;-72
2024/01/31 01:37:29;;;;;;;10.13;6.82;;;5.80;99.90;;;5.03;100.00;103018.66;4168171;28;20026;-72
2024/01/31 01:39:30;;;;;;;9.07;7.80;;;5.80;99.90;;;5.10;100.00;103019.25;4167058;28;20555;-72
2024/01/31 01:41:31;;;;;;;8.55;6.70;;;5.90;99.90;;;5.16;100.00;103027.69;4166940;28;20025;-72
2024/01/31 01:43:32;;;;;;;7.35;5.35;;;5.90;99.90;;;5.21;100.00;103014.41;4166704;28;20521;-72
2024/01/31 01:45:32;;;;;;;6.85;5.45;;;5.90;99.90;;;5.25;100.00;103019.44;4167871;28;20485;-72
2024/01/31 01:47:35;;;;;;;8.32;4.97;;;6.00;99.90;;;5.26;100.00;103021.13;4169133;28;20468;-72
2024/01/31 01:49:37;;;;;;;6.22;4.93;;;6.00;99.90;;;5.33;100.00;103026.94;4170142;28;20400;-72
2024/01/31 01:51:39;;;;;;;6.35;4.38;;;6.00;99.90;;;5.36;100.00;103019.81;4169980;28;20089;-72
2024/01/31 01:53:41;;;;;;;9.18;5.28;;;6.10;99.90;;;5.38;100.00;103017.97;4171107;28;20037;-72
2024/01/31 01:55:42;;;;;;;10.02;6.82;;;6.20;99.90;;;5.45;100.00;103022.03;4170137;28;20026;-72
2024/01/31 01:57:43;;;;;;;7.55;6.43;;;6.20;99.90;;;5.51;100.00;103026.16;4153356;28;20064;-72
2024/01/31 01:59:45;;;;;;;7.95;5.80;;;6.30;99.90;;;5.57;100.00;103031.13;4170005;28;20021;-72
2024/01/31 02:01:47;;;;;;;7.80;5.28;;;6.30;99.90;;;5.63;100.00;103027.38;4169728;28;20087;-72
2024/01/31 02:03:57;;;;;;;10.15;5.57;;;6.40;99.90;;;5.67;100.00;103031.56;4169891;28;20022;-72
2024/01/31 02:05:59;;;;;;;8.45;5.90;;;6.40;99.90;;;5.72;100.00;103037.44;4169750;28;20155;-72
2024/01/31 02:08:00;;;;;;;6.22;4.50;;;6.40;99.90;;;5.74;100.00;103036.44;4169825;28;20616;-72
2024/01/31 02:10:02;;;;;;;8.70;6.28;;;6.50;99.90;;;5.75;100.00;103025.06;4169673;28;20068;-72
2024/01/31 02:12:04;;;;;;;10.18;7.25;;;6.50;99.90;;;5.81;100.00;103037.03;4169820;28;20496;-72
2024/01/31 02:14:05;;;;;;;11.05;7.93;;;6.60;99.90;;;5.83;100.00;103035.19;4170785;28;20080;-72
2024/01/31 02:16:06;;;;;;;11.45;7.45;;;6.60;99.90;;;5.89;100.00;103048.03;4169690;28;20468;-72
2024/01/31 02:18:07;;;;;;;8.50;6.57;;;6.60;99.90;;;5.91;100.00;103054.06;4170789;28;20515;-72
2024/01/31 02:20:08;;;;;;;7.28;5.00;;;6.60;99.90;;;5.91;100.00;103048.81;4170827;28;20032;-72
2024/01/31 02:22:19;;;;;;;8.75;4.88;;;6.70;99.90;;;5.90;100.00;103049.72;4169647;28;20444;-72
2024/01/31 02:24:20;;;;;;;11.18;6.85;;;6.60;99.90;;;5.91;100.00;103046.22;4169442;28;20029;-72
2024/01/31 02:26:21;;;;;;;12.15;8.00;;;6.70;99.90;;;5.92;100.00;103058.38;4169672;28;20036;-72
2024/01/31 02:28:21;;;;;;;12.73;8.77;;;6.70;99.90;;;5.92;100.00;103047.88;4169376;28;20029;-72
2024/01/31 02:30:22;;;;;;;13.85;8.85;;;6.70;99.90;;;5.96;100.00;103044.22;4170671;28;20017;-72
2024/01/31 02:32:23;;;;;;;12.38;8.27;;;6.70;99.90;;;5.95;100.00;103032.88;4170391;28;20036;-72
2024/01/31 02:34:25;;;;;;;12.00;7.78;;;6.70;99.90;;;6.00;100.00;103030.91;4170626;28;20032;-72
2024/01/31 02:36:26;;;;;;;14.57;8.10;;;6.80;99.90;;;6.01;100.00;103032.59;4170602;28;20477;-72
2024/01/31 02:38:27;;;;;;;11.15;7.47;;;6.80;99.90;;;6.03;100.00;103029.94;4170182;28;20032;-72
2024/01/31 02:40:31;;;;;;;11.57;7.82;;;6.80;99.90;;;6.05;100.00;103028.06;4170409;28;20192;-72
2024/01/31 02:42:32;;;;;;;11.20;7.47;;;6.80;99.90;;;6.06;100.00;103030.59;4170281;28;20496;-72
2024/01/31 02:44:33;;;;;;;13.85;8.52;;;6.90;99.90;;;6.07;100.00;103029.69;4170492;28;20064;-72
2024/01/31 02:46:34;;;;;;;10.77;7.60;;;6.90;99.90;;;6.07;100.00;103024.47;4168858;28;20032;-72
2024/01/31 02:48:34;;;;;;;9.73;6.55;;;6.90;99.90;;;6.08;100.00;103030.56;4169155;28;20021;-72
2024/01/31 02:50:35;;;;;;;13.35;7.88;;;6.90;99.90;;;6.13;100.00;103026.78;4170594;28;20029;-72
2024/01/31 02:52:36;;;;;;;10.63;7.25;;;6.90;99.90;;;6.13;100.00;103028.56;4170367;28;20021;-72
2024/01/31 02:54:37;;;;;;;12.63;7.35;;;6.90;99.90;;;6.13;100.00;103016.31;4170042;28;20033;-72
2024/01/31 02:56:38;;;;;;;14.70;8.55;;;6.90;99.90;;;6.11;100.00;103022.56;4170286;28;20083;-72
2024/01/31 02:58:39;;;;;;;10.60;6.70;;;6.90;99.90;;;6.12;100.00;103022.47;4168372;28;20033;-72
2024/01/31 03:00:39;;;;;;;11.50;7.68;;;6.90;99.90;;;6.12;100.00;103017.22;4170165;28;20030;-72
2024/01/31 03:02:44;;;;;;;13.35;7.70;;;6.90;99.90;;;6.12;100.00;103013.78;4170183;28;20021;-72
2024/01/31 03:04:44;;;;;;;;;;;6.90;99.90;;;6.13;100.00;103016.31;4170514;28;20378;-72
2024/01/31 03:06:45;;;;;;;8.20;6.75;;;6.90;99.90;;;6.15;100.00;103012.78;4169430;28;19916;-72
2024/01/31 03:08:46;;;;;;;10.85;6.68;;;6.90;99.90;;;6.12;100.00;103009.38;4170165;28;20504;-72
2024/01/31 03:10:47;;;;;;;9.50;6.50;;;6.90;99.90;;;6.13;100.00;103007.59;4170087;28;20156;-72
2024/01/31 03:12:48;;;;;;;8.38;6.18;;;7.00;99.90;;;6.13;100.00;103011.06;4169797;28;20053;-72
2024/01/31 03:14:48;;;;;;;9.02;7.15;;;6.90;99.90;;;6.12;100.00;103019.03;4169932;28;20033;-72
2024/01/31 03:16:49;;;;;;;10.38;6.18;;;6.90;99.90;;;6.13;100.00;103031.19;4168775;28;20026;-72
2024/01/31 03:18:50;;;;;;;8.45;6.72;;;6.90;99.90;;;6.12;100.00;103019.03;4169984;28;20024;-72
2024/01/31 03:20:54;;;;;;;10.50;6.50;;;6.90;99.90;;;6.13;100.00;103025.94;4168868;28;20029;-72
2024/01/31 03:22:55;;;;;;;10.45;7.45;;;6.90;99.90;;;6.12;100.00;103025.09;4169700;28;20488;-72
2024/01/31 03:24:56;;;;;;;12.55;8.60;;;6.90;99.90;;;6.10;100.00;103024.31;4169801;28;20034;-72
2024/01/31 03:26:57;;;;;;;12.93;8.05;;;6.90;99.90;;;6.08;100.00;103014.84;4169803;28;20061;-72
2024/01/31 03:29:01;;;;;;;10.60;7.53;;;6.90;99.90;;;6.07;100.00;103013.13;4168370;28;20033;-72
2024/01/31 03:31:02;;;;;;;11.48;7.43;;;6.90;99.90;;;6.08;100.00;103018.31;4168297;28;20485;-72
2024/01/31 03:33:03;;;;;;;9.43;7.53;;;6.90;99.90;;;6.11;100.00;103023.41;4169725;28;20028;-72
2024/01/31 03:35:04;;;;;;;11.45;7.63;;;6.90;99.90;;;6.12;100.00;103016.41;4168707;28;20042;-72
2024/01/31 03:37:05;;;;;;;13.40;8.77;;;6.90;99.90;;;6.14;100.00;103017.16;4151914;28;20073;-72
2024/01/31 03:39:06;;;;;;;12.68;9.15;;;6.90;99.90;;;6.16;100.00;103017.09;4169462;28;20539;-72
2024/01/31 03:41:07;;;;;;;11.57;8.02;;;6.90;99.90;;;6.14;100.00;103017.16;4169582;28;20044;-72
2024/01/31 03:43:08;;;;;;;10.20;7.75;;;7.00;99.90;;;6.12;100.00;103009.38;4169254;28;20032;-72
2024/01/31 03:45:09;;;;;;;12.48;8.20;;;6.90;99.90;;;6.14;100.00;103014.56;4168337;28;20029;-72
2024/01/31 03:47:10;;;;;;;11.30;7.68;;;6.90;99.90;;;6.13;100.00;103003.22;4169178;28;20048;-72
2024/01/31 03:49:11;;;;;;;10.98;7.97;;;7.00;99.90;;;6.13;100.00;102997.13;4169463;28;20029;-72
2024/01/31 03:51:23;;;;;;;10.40;8.13;;;6.90;99.90;;;6.16;100.00;103001.34;4168338;28;20029;-72
2024/01/31 03:53:24;;;;;;;9.05;7.28;;;7.00;99.90;;;6.13;100.00;103004.97;4168201;28;20456;-72
2024/01/31 03:55:25;;;;;;;9.65;7.65;;;7.00;99.90;;;6.15;100.00;103003.16;4169188;28;20030;-72
2024/01/31 03:57:26;;;;;;;10.57;7.15;;;7.00;99.90;;;6.17;100.00;103006.53;4151389;28;20021;-72
2024/01/31 03:59:26;;;;;;;10.55;7.97;;;7.00;99.90;;;6.16;100.00;102996.97;4169161;28;20401;-72
2024/01/31 04:01:27;;;;;;;10.60;7.47;;;7.00;99.90;;;6.20;100.00;103000.31;4169186;28;20029;-72
2024/01/31 04:03:28;;;;;;;10.23;8.35;;;7.00;99.90;;;6.18;100.00;102997.78;4168980;28;20037;-72
2024/01/31 04:05:29;;;;;;;10.93;6.93;;;7.00;99.90;;;6.20;100.00;103006.41;4168236;28;20013;-72
2024/01/31 04:07:30;;;;;;;10.73;7.13;;;7.00;99.90;;;6.17;100.00;102996.06;4168133;28;20025;-72
2024/01/31 04:09:31;;;;;;;7.72;6.60;;;7.00;99.90;;;6.21;100.00;103008.09;4167778;28;20052;-72
2024/01/31 04:11:34;;;;;;;8.82;5.93;;;7.00;99.90;;;6.21;100.00;103002.88;4168770;28;20026;-72
2024/01/31 04:13:37;;;;;;;9.63;7.40;;;7.00;99.90;;;6.22;100.00;103007.16;4167623;28;20017;-72
2024/01/31 04:15:38;;;;;;;9.32;6.88;;;7.00;99.90;;;6.21;100.00;103005.50;4168021;28;20030;-72
2024/01/31 04:17:39;;;;;;;10.02;6.60;;;7.00;99.90;;;6.21;100.00;103007.25;4167865;28;20056;-72
2024/01/31 04:19:39;;;;;;;10.98;6.82;;;7.00;99.90;;;6.21;100.00;103007.25;4167910;28;20033;-72
2024/01/31 04:21:40;;;;;;;9.38;6.88;;;7.00;99.90;;;6.18;100.00;102997.78;4169071;28;20026;-72
2024/01/31 04:23:41;;;;;;;9.93;7.55;;;7.00;99.90;;;6.18;100.00;103008.25;4167632;28;20040;-72
2024/01/31 04:25:42;;;;;;;13.40;7.75;;;7.00;99.90;;;6.19;100.00;103003.84;4167883;28;20032;-72
2024/01/31 04:27:43;;;;;;;9.70;6.80;;;7.00;99.90;;;6.19;100.00;103016.94;4167309;28;20036;-72
2024/01/31 04:29:44;;;;;;;8.35;6.00;;;7.00;99.90;;;6.17;100.00;103011.78;4169103;28;20025;-72
2024/01/31 04:31:49;;;;;;;8.55;5.25;;;7.00;99.90;;;6.13;100.00;103004.97;4168934;28;20033;-72
2024/01/31 04:33:50;;;;;;;8.02;6.03;;;7.00;99.90;;;6.12;100.00;103005.91;4164261;28;20104;-72
2024/01/31 04:35:51;;;;;;;8.77;5.88;;;6.90;99.90;;;6.12;100.00;103016.41;4168963;28;20030;-72
2024/01/31 04:37:52;;;;;;;8.65;5.20;;;6.90;99.90;;;6.10;100.00;103016.47;4167787;28;20398;-72
2024/01/31 04:39:53;;;;;;;8.63;6.00;;;6.80;99.90;;;6.08;100.00;103017.47;4168766;28;20091;-72
2024/01/31 04:41:54;;;;;;;8.38;6.22;;;6.80;99.90;;;6.06;100.00;103008.81;4168650;28;20354;-72
2024/01/31 04:43:55;;;;;;;7.93;5.80;;;6.80;99.90;;;6.06;100.00;103014.88;4168377;28;20033;-72
2024/01/31 04:45:56;;;;;;;8.75;6.00;;;6.80;99.90;;;6.04;100.00;103010.66;4167415;28;20025;-72
2024/01/31 04:47:56;;;;;;;7.05;5.28;;;6.80;99.90;;;6.08;100.00;103023.56;4167103;28;20413;-73
2024/01/31 04:49:58;;;;;;;7.32;5.88;;;6.80;99.90;;;6.09;100.00;103024.41;4168788;28;20021;-72
2024/01/31 04:51:59;;;;;;;7.28;5.57;;;6.80;99.90;;;6.10;100.00;103023.47;4168495;28;20018;-72
2024/01/31 04:54:00;;;;;;;8.85;4.80;;;6.80;99.90;;;6.06;100.00;103014.88;4168757;28;20033;-72
2024/01/31 04:56:01;;;;;;;7.93;5.25;;;6.80;99.90;;;6.14;100.00;103032.88;4167450;28;20411;-72
2024/01/31 04:58:02;;;;;;;9.20;5.97;;;6.80;99.90;;;6.14;100.00;103030.28;4167149;28;20044;-72
2024/01/31 05:00:04;;;;;;;11.75;6.63;;;6.90;99.90;;;6.16;100.00;103041.53;4168370;28;20025;-72
2024/01/31 05:02:09;;;;;;;6.95;5.78;;;6.90;99.90;;;6.14;100.00;103043.38;4167079;28;20527;-72
2024/01/31 05:04:10;;;;;;;8.98;6.05;;;6.90;99.90;;;6.16;100.00;103041.53;4150835;28;20100;-72
2024/01/31 05:06:11;;;;;;;9.85;7.10;;;6.90;99.90;;;6.15;100.00;103034.59;4168649;28;20026;-72
2024/01/31 05:08:12;;;;;;;8.30;6.55;;;6.90;99.90;;;6.17;100.00;103038.00;4167123;28;20030;-72
2024/01/31 05:10:12;;;;;;;11.15;7.03;;;6.90;99.90;;;6.17;100.00;103038.00;4168021;28;20017;-72
2024/01/31 05:12:14;;;;;;;9.77;7.10;;;6.90;99.90;;;6.22;100.00;103035.13;4167104;28;20029;-72
2024/01/31 05:14:15;;;;;;;11.35;7.40;;;6.90;99.90;;;6.24;100.00;103038.56;4168515;28;20076;-72
2024/01/31 05:16:15;;;;;;;12.20;8.57;;;7.00;99.90;;;6.25;100.00;103032.38;4168320;28;20029;-72
2024/01/31 05:18:17;;;;;;;11.15;8.20;;;7.00;99.90;;;6.25;100.00;103035.84;4167340;28;20032;-72
2024/01/31 05:20:17;;;;;;;9.60;7.97;;;7.00;99.90;;;6.28;100.00;103038.31;4168494;28;20056;-72
2024/01/31 05:22:18;;;;;;;8.93;6.93;;;7.00;99.90;;;6.26;100.00;103029.69;4170281;28;20025;-72
2024/01/31 05:24:19;;;;;;;8.60;6.32;;;7.00;99.90;;;6.27;100.00;103028.78;4171518;28;20038;-72
2024/01/31 05:26:20;;;;;;;7.78;6.35;;;7.00;99.90;;;6.29;100.00;103032.19;4171762;28;20018;-72
2024/01/31 05:28:21;;;;;;;9.48;6.50;;;7.10;99.90;;;6.28;100.00;103025.22;4171501;28;20032;-72
2024/01/31 05:30:22;;;;;;;8.30;6.32;;;7.10;99.90;;;6.31;100.00;103026.84;4171698;28;20021;-72
2024/01/31 05:32:22;;;;;;;8.52;5.72;;;7.10;99.90;;;6.28;100.00;103019.97;4171460;28;20500;-72
2024/01/31 05:34:23;;;;;;;11.27;7.75;;;7.00;99.90;;;6.30;100.00;103027.78;4170271;28;20029;-72
2024/01/31 05:36:24;;;;;;;10.40;7.35;;;7.10;99.90;;;6.30;100.00;103033.84;4172023;28;20108;-72
2024/01/31 05:38:25;;;;;;;10.75;7.28;;;7.10;99.90;;;6.31;100.00;103040.81;4171491;28;20029;-72
2024/01/31 05:40:26;;;;;;;9.65;5.82;;;7.10;99.90;;;6.34;100.00;103039.81;4171598;28;20033;-72
2024/01/31 05:42:27;;;;;;;8.75;5.93;;;7.10;99.90;;;6.30;100.00;103030.41;4171049;28;20017;-72
2024/01/31 05:44:27;;;;;;;7.63;5.43;;;7.10;99.90;;;6.33;100.00;103033.72;4171422;28;20033;-72
2024/01/31 05:46:28;;;;;;;8.70;6.15;;;7.10;99.90;;;6.36;100.00;103032.75;4170102;28;20088;-72
2024/01/31 05:48:29;;;;;;;8.80;6.00;;;7.10;99.90;;;6.38;100.00;103036.13;4169996;28;20132;-72
2024/01/31 05:50:30;;;;;;;8.60;6.40;;;7.10;99.90;;;6.37;100.00;103027.41;4171512;28;20044;-72
2024/01/31 05:52:31;;;;;;;14.20;7.60;;;7.10;99.90;;;6.40;100.00;103032.50;4170388;28;20025;-72
2024/01/31 05:54:32;;;;;;;9.93;6.57;;;7.10;99.90;;;6.38;100.00;103021.25;4171474;28;20021;-72
2024/01/31 05:56:35;;;;;;;12.88;7.90;;;7.20;99.90;;;6.42;100.00;103028.03;4171327;28;20512;-72
2024/01/31 05:58:35;;;;;;;12.60;7.45;;;7.20;99.90;;;6.41;100.00;103022.88;4170831;28;20057;-72
2024/01/31 06:00:37;;;;;;;10.38;7.65;;;7.20;99.90;;;6.41;100.00;103028.97;4171045;28;20087;-72
2024/01/31 06:02:38;;;;;;;10.98;8.15;;;7.20;99.90;;;6.40;100.00;103027.25;4171095;28;20497;-72
2024/01/31 06:04:40;;;;;;;11.35;7.95;;;7.20;99.90;;;6.42;100.00;103024.59;4169681;28;20077;-72
2024/01/31 06:06:41;;;;;;;16.63;8.35;;;7.20;99.90;;;6.41;100.00;103020.25;4171019;28;20606;-72
2024/01/31 06:08:42;;;;;;;10.68;8.18;;;7.20;99.90;;;6.40;100.00;103029.03;4170054;28;20034;-72
2024/01/31 06:10:42;;;;;;;8.48;6.80;;;7.20;99.90;;;6.41;100.00;103034.22;4171013;28;20018;-72
2024/01/31 06:12:44;;;;;;;9.88;7.93;;;7.20;99.90;;;6.41;100.00;103021.09;4170842;28;20021;-72
2024/01/31 06:14:45;;;;;;;8.82;7.53;;;7.20;99.90;;;6.40;100.00;103019.41;4153177;28;20026;-72
2024/01/31 06:16:45;;;;;;;10.18;8.13;;;7.20;99.90;;;6.43;100.00;103034.13;4174428;28;20401;-72
2024/01/31 06:18:46;;;;;;;13.25;7.78;;;7.20;99.90;;;6.41;100.00;103020.25;4169712;28;20400;-72
2024/01/31 06:20:47;;;;;;;10.57;7.63;;;7.20;99.90;;;6.45;100.00;103030.50;4169663;28;20414;-72
2024/01/31 06:22:48;;;;;;;10.93;8.82;;;7.20;99.90;;;6.43;100.00;103023.63;4170605;28;20025;-72
2024/01/31 06:24:49;;;;;;;11.70;7.78;;;7.30;99.90;;;6.42;100.00;103017.53;4171003;28;20038;-72
2024/01/31 06:26:50;;;;;;;13.52;9.90;;;7.30;99.90;;;6.42;100.00;103011.47;4170737;28;20048;-72
2024/01/31 06:28:50;;;;;;;12.55;9.18;;;7.20;99.90;;;6.39;100.00;103014.25;4170509;28;20021;-72
2024/01/31 06:30:59;;;;;;;15.77;10.32;;;7.20;99.90;;;6.35;100.00;103016.16;4170694;28;20032;-72
2024/01/31 06:33:07;;;;;;;14.25;8.63;;;7.20;99.90;;;6.29;100.00;103032.19;4169817;28;20018;-72
2024/01/31 06:35:08;;;;;;;14.05;9.40;;;7.20;99.90;;;6.20;100.00;103043.09;4169597;28;20084;-72
2024/01/31 06:37:08;;;;;;;18.48;8.95;;;7.10;99.90;;;6.18;100.00;103042.31;4169494;28;20044;-72
2024/01/31 06:39:10;;;;;;;12.82;8.23;;;7.00;99.90;;;6.16;100.00;103049.38;4169377;28;20017;-72
2024/01/31 06:41:16;;;;;;;11.27;8.23;;;7.00;99.90;;;6.17;100.00;103051.09;4169189;28;20037;-72
2024/01/31 06:43:18;;;;;;;11.80;8.80;;;7.00;99.90;;;6.20;100.00;103050.09;4169209;28;20084;-72
2024/01/31 06:45:19;;;;;;;13.60;8.93;;;7.00;99.90;;;6.23;100.00;103065.69;4170504;28;20543;-72
2024/01/31 06:47:20;;;;;;;12.13;8.55;;;7.00;99.90;;;6.26;100.00;103063.78;4170179;28;20061;-72
2024/01/31 06:49:21;;;;;;;12.70;9.10;;;7.00;99.90;;;6.26;100.00;103063.78;4170467;28;20060;-72
2024/01/31 06:51:22;;;;;;;12.85;8.73;;;7.00;99.90;;;6.23;100.00;103063.91;4170293;28;20026;-72
2024/01/31 06:53:23;;;;;;;12.73;8.27;;;7.00;99.90;;;6.26;100.00;103078.63;4169050;28;20034;-72
2024/01/31 06:55:25;;;;;;;11.55;8.73;;;7.10;99.90;;;6.26;100.00;103074.25;4168736;28;20056;-72
2024/01/31 06:57:25;;;;;;;12.82;7.78;;;7.10;99.90;;;6.32;100.00;103084.44;4170171;28;20477;-72
2024/01/31 06:59:26;;;;;;;10.85;8.23;;;7.10;99.90;;;6.32;100.00;103073.97;4170274;28;20030;-72
2024/01/31 07:01:27;;;;;;;10.52;7.93;;;7.10;99.90;;;6.32;100.00;103073.97;4170181;28;20037;-72
2024/01/31 07:03:30;;;;;;;9.88;7.30;;;7.10;99.90;;;6.34;100.00;103071.25;4170059;28;20033;-72
2024/01/31 07:05:31;;;;;;;9.80;6.75;;;7.20;99.90;;;6.34;100.00;103079.97;4169032;28;20119;-72
2024/01/31 07:07:33;;;;;;;11.20;7.72;;;7.10;99.90;;;6.35;100.00;103086.94;4170273;28;20033;-72
2024/01/31 07:09:34;;;;;;;10.90;7.28;;;7.10;99.90;;;6.35;100.00;103089.56;4170066;28;20026;-72
2024/01/31 07:11:34;;;;;;;12.93;8.10;;;7.10;99.90;;;6.36;100.00;103086.00;4169934;28;20071;-72
2024/01/31 07:13:36;;;;;;;11.18;7.72;;;7.10;99.90;;;6.38;100.00;103083.31;4169707;28;20026;-72
2024/01/31 07:15:37;;;;;;;11.55;8.65;;;7.10;99.90;;;6.38;100.00;103076.31;4152254;28;20029;-72
2024/01/31 07:17:37;;;;;;;11.77;8.18;;;7.10;99.90;;;6.38;100.00;103072.81;4168719;28;20029;-72
2024/01/31 07:19:45;;;;;;;13.13;7.70;;;7.20;99.90;;;6.39;100.00;103074.53;4169856;28;20034;-72
2024/01/31 07:21:45;;;;;;;15.13;8.30;;;7.20;99.90;;;6.39;100.00;103075.34;4167978;28;20421;-72
2024/01/31 07:23:46;;;;;;;10.07;7.82;;;7.20;99.90;;;6.40;100.00;103079.69;4168424;28;20036;-72
2024/01/31 07:25:47;;;;;;;11.00;7.07;;;7.20;99.90;;;6.38;100.00;103063.19;4169818;28;20025;-72
2024/01/31 07:27:48;;;;;;;11.43;7.25;;;7.20;99.90;;;6.39;100.00;103062.25;4169470;28;20030;-72
2024/01/31 07:29:49;;;;;;;9.30;7.60;;;7.20;99.90;;;6.40;100.00;103061.34;4169907;28;20029;-72
2024/01/31 07:31:50;;;;;;;12.82;7.63;;;7.20;99.90;;;6.39;100.00;103053.56;4168024;28;20017;-72
2024/01/31 07:33:51;;;;;;;9.13;7.43;;;7.20;99.90;;;6.38;100.00;103036.13;4168326;28;20026;-72
2024/01/31 07:35:52;;;;;;;11.07;7.20;;;7.20;99.90;;;6.39;100.00;103037.84;4168320;28;20029;-72
2024/01/31 07:37:53;;;;;;;8.50;6.95;;;7.20;99.90;;;6.40;100.00;103042.13;4169704;28;20047;-72
2024/01/31 07:39:56;;;;;;;10.38;6.82;;;7.20;99.90;;;6.42;100.00;103030.66;4168408;28;20034;-72
2024/01/31 07:41:57;;;;;;;12.35;7.07;;;7.20;99.90;;;6.46;100.00;103028.72;4168213;28;20031;-72
2024/01/31 07:43:58;;;;;;;10.00;7.25;;;7.20;99.90;;;6.46;100.00;103026.13;4169275;28;20064;-72
2024/01/31 07:45:58;;;;;;;11.65;7.93;;;7.20;99.90;;;6.45;100.00;103035.75;4168097;28;20025;-72
2024/01/31 07:47:59;;;;;;;13.98;8.20;;;7.20;99.90;;;6.45;100.00;103046.22;4169295;28;20046;-72
2024/01/31 07:50:00;;;;;;;10.75;8.00;;;7.30;99.90;;;6.42;100.00;103048.19;4169421;28;20041;-72
2024/01/31 07:52:01;;;;;;;16.88;8.02;;;7.20;99.90;;;6.41;100.00;103054.34;4168256;28;20025;-72
2024/01/31 07:54:03;;;;;;;13.63;8.25;;;7.20;99.90;;;6.42;100.00;103048.19;4168110;28;20428;-72
2024/01/31 07:56:05;;;;;;;13.27;8.32;;;7.20;99.90;;;6.40;100.00;103032.50;4169153;28;20506;-72
2024/01/31 07:58:05;;;;;;;11.35;8.18;;;7.20;99.90;;;6.48;100.00;103038.22;4169157;28;20025;-73
2024/01/31 08:00:07;;;;;;;11.63;7.28;;;7.20;99.90;;;6.50;100.00;103035.53;4169022;28;20044;-73
2024/01/31 08:02:08;;;;;;;11.90;8.10;;;7.20;99.90;;;6.51;100.00;103037.25;4168159;28;20079;-73
2024/01/31 08:04:09;;;;;;;8.77;7.00;;;7.30;99.90;;;6.53;100.00;103043.25;4169112;28;20079;-73
2024/01/31 08:06:10;;;;;;;9.57;7.22;;;7.30;99.90;;;6.56;100.00;103041.34;4169236;28;20022;-72
2024/01/31 08:08:11;;;;;;;13.07;7.32;;;7.30;99.90;;;6.55;100.00;103038.78;4169078;28;20098;-72
2024/01/31 08:10:12;;;;;;;10.88;7.63;;;7.30;99.90;;;6.57;100.00;103034.34;4168075;28;20025;-72
2024/01/31 08:12:13;;;;;;;10.60;7.85;;;7.30;99.90;;;6.59;100.00;103041.19;4168906;28;20056;-73
2024/01/31 08:14:14;;;;;;;11.25;7.30;;;7.30;99.90;;;6.64;100.00;103023.47;4167814;28;20128;-73
2024/01/31 08:16:15;;;;;;;8.80;7.10;;;7.40;99.90;;;6.71;100.00;103023.16;4167828;28;20433;-72
2024/01/31 08:18:16;;;;;;;14.38;8.35;;;7.40;99.90;;;6.75;100.00;103028.16;4167817;28;20513;-72
2024/01/31 08:20:17;;;;;;;13.70;8.07;;;7.50;99.90;;;6.75;100.00;103041.28;4169031;28;20060;-72
2024/01/31 08:22:18;;;;;;;12.32;7.18;;;7.50;99.90;;;6.76;100.00;103047.38;4167665;28;20029;-72
2024/01/31 08:24:20;;;;;;;10.00;7.28;;;7.50;99.90;;;6.81;100.00;103043.59;4164744;28;20523;-72
2024/01/31 08:26:22;;;;;;;10.52;7.68;;;7.50;99.90;;;6.87;100.00;103040.66;4167494;28;20026;-72